createdAt,value
2019-03-19T00:02:12.437Z,11.57
2019-03-19T00:04:38.734Z,11.87
2019-03-19T00:07:08.105Z,10.90
2019-03-19T00:09:34.376Z,12.30
2019-03-19T00:12:00.675Z,14.17
2019-03-19T00:14:26.947Z,15.17
2019-03-19T00:16:56.288Z,13.90
2019-03-19T00:19:22.676Z,13.63
2019-03-19T00:21:48.953Z,13.03
2019-03-19T00:24:15.281Z,13.43
2019-03-19T00:26:41.541Z,13.93
2019-03-19T00:29:07.812Z,13.20
2019-03-19T00:31:37.225Z,12.73
2019-03-19T00:34:03.522Z,13.47
2019-03-19T00:36:29.802Z,12.80
2019-03-19T00:38:59.117Z,13.37
2019-03-19T00:41:25.414Z,12.10
2019-03-19T00:43:51.687Z,13.90
2019-03-19T00:46:17.991Z,14.90
2019-03-19T00:48:44.321Z,15.77
2019-03-19T00:51:10.583Z,13.93
2019-03-19T00:53:36.895Z,13.37
2019-03-19T00:56:03.188Z,14.67
2019-03-19T00:58:29.473Z,15.00
2019-03-19T01:00:55.766Z,13.53
2019-03-19T01:03:22.063Z,14.77
2019-03-19T01:05:48.318Z,14.47
2019-03-19T01:08:14.641Z,14.87
2019-03-19T01:10:40.897Z,16.67
2019-03-19T01:13:07.171Z,15.90
2019-03-19T01:15:33.465Z,17.63
2019-03-19T01:17:59.746Z,18.83
2019-03-19T01:20:32.286Z,16.60
2019-03-19T01:22:58.705Z,16.23
2019-03-19T01:25:24.979Z,17.17
2019-03-19T01:27:51.286Z,18.27
2019-03-19T01:30:17.578Z,16.10
2019-03-19T01:32:43.846Z,16.07
2019-03-19T01:35:10.127Z,15.53
2019-03-19T01:37:36.461Z,16.23
2019-03-19T01:40:05.358Z,14.27
2019-03-19T01:42:31.640Z,13.93
2019-03-19T01:44:57.960Z,14.83
2019-03-19T01:47:24.237Z,14.90
2019-03-19T01:49:50.514Z,14.73
2019-03-19T01:52:19.930Z,15.13
2019-03-19T01:54:46.212Z,16.27
2019-03-19T01:57:12.510Z,15.53
2019-03-19T01:59:38.829Z,17.23
2019-03-19T02:02:05.101Z,15.93
2019-03-19T02:04:34.450Z,15.30
2019-03-19T02:07:06.845Z,13.43
2019-03-19T02:09:33.268Z,14.23
2019-03-19T02:12:02.654Z,14.50
2019-03-19T02:14:28.992Z,14.37
2019-03-19T02:16:58.404Z,14.23
2019-03-19T02:19:24.697Z,15.43
2019-03-19T02:21:52.051Z,14.20
2019-03-19T02:24:18.346Z,13.73
2019-03-19T02:26:44.642Z,12.90
2019-03-19T02:29:11.058Z,13.17
2019-03-19T02:31:37.396Z,12.93
2019-03-19T02:34:09.462Z,13.03
2019-03-19T02:36:35.738Z,13.40
2019-03-19T02:39:02.237Z,12.57
2019-03-19T02:41:28.500Z,14.80
2019-03-19T02:43:54.788Z,14.33
2019-03-19T02:46:21.071Z,15.17
2019-03-19T02:48:47.354Z,13.40
2019-03-19T02:51:13.651Z,13.93
2019-03-19T02:53:39.946Z,13.20
2019-03-19T02:56:12.019Z,13.40
2019-03-19T02:58:38.314Z,13.20
2019-03-19T03:01:04.599Z,12.97
2019-03-19T03:03:30.913Z,13.93
2019-03-19T03:05:57.198Z,12.80
2019-03-19T03:08:23.489Z,12.93
2019-03-19T03:10:49.798Z,14.20
2019-03-19T03:13:16.067Z,13.47
2019-03-19T03:15:42.322Z,13.50
2019-03-19T03:18:08.624Z,13.83
2019-03-19T03:20:34.926Z,12.23
2019-03-19T03:23:01.232Z,12.27
2019-03-19T03:25:27.486Z,12.77
2019-03-19T03:27:53.803Z,15.00
2019-03-19T03:30:21.070Z,13.13
2019-03-19T03:32:47.320Z,12.30
2019-03-19T03:35:13.742Z,12.87
2019-03-19T03:37:40.013Z,11.90
2019-03-19T03:40:11.592Z,12.67
2019-03-19T03:42:37.901Z,13.25
2019-03-19T03:45:09.717Z,12.83
2019-03-19T03:50:04.477Z,13.63
2019-03-19T03:52:30.853Z,14.63
2019-03-19T03:54:57.158Z,14.97
2019-03-19T03:57:23.457Z,14.03
2019-03-19T03:59:49.759Z,14.30
2019-03-19T04:02:16.040Z,14.57
2019-03-19T04:04:42.339Z,13.23
2019-03-19T04:07:08.769Z,11.97
2019-03-19T04:09:35.099Z,12.43
2019-03-19T04:12:01.371Z,12.50
2019-03-19T04:14:27.683Z,13.40
2019-03-19T04:16:53.982Z,13.20
2019-03-19T04:19:20.258Z,13.40
2019-03-19T04:21:46.567Z,12.90
2019-03-19T04:24:12.847Z,13.23
2019-03-19T04:26:39.238Z,13.07
2019-03-19T04:29:05.551Z,15.00
2019-03-19T04:31:31.852Z,13.73
2019-03-19T04:33:58.109Z,14.43
2019-03-19T04:36:24.463Z,13.17
2019-03-19T04:38:50.847Z,14.03
2019-03-19T04:41:17.178Z,13.60
2019-03-19T04:43:43.474Z,13.03
2019-03-19T04:46:09.742Z,13.17
2019-03-19T04:48:36.043Z,12.63
2019-03-19T04:51:02.317Z,12.73
2019-03-19T04:53:28.590Z,13.27
2019-03-19T04:55:54.986Z,12.93
2019-03-19T04:58:21.253Z,12.60
2019-03-19T05:00:47.537Z,12.50
2019-03-19T05:03:13.830Z,13.27
2019-03-19T05:05:40.143Z,13.20
2019-03-19T05:08:06.411Z,12.67
2019-03-19T05:10:32.751Z,14.57
2019-03-19T05:13:00.820Z,13.80
2019-03-19T05:15:27.160Z,13.63
2019-03-19T05:17:53.473Z,14.03
2019-03-19T05:20:19.773Z,16.07
2019-03-19T05:22:46.255Z,16.57
2019-03-19T05:25:19.234Z,15.43
2019-03-19T05:27:51.534Z,15.37
2019-03-19T05:30:18.963Z,15.50
2019-03-19T05:32:45.230Z,14.70
2019-03-19T05:35:11.533Z,14.37
2019-03-19T05:37:41.077Z,14.07
2019-03-19T05:40:15.963Z,14.27
2019-03-19T05:42:42.270Z,15.50
2019-03-19T05:45:10.097Z,17.13
2019-03-19T05:47:40.740Z,17.87
2019-03-19T05:50:16.097Z,18.90
2019-03-19T05:52:48.324Z,16.17
2019-03-19T05:57:56.286Z,14.30
2019-03-19T06:00:27.565Z,16.23
2019-03-19T06:03:06.865Z,17.50
2019-03-19T06:05:34.214Z,15.97
2019-03-19T06:08:13.459Z,15.87
2019-03-19T06:10:42.838Z,14.03
2019-03-19T06:13:14.417Z,14.07
2019-03-19T06:15:56.207Z,14.10
2019-03-19T06:18:34.680Z,13.90
2019-03-19T06:20:59.867Z,14.83
2019-03-19T06:23:26.256Z,14.47
2019-03-19T06:25:57.751Z,12.50
2019-03-19T06:28:37.526Z,13.20
2019-03-19T06:31:09.839Z,13.07
2019-03-19T06:33:42.243Z,14.03
2019-03-19T06:36:20.747Z,11.57
2019-03-19T06:38:50.312Z,11.80
2019-03-19T06:41:16.565Z,11.53
2019-03-19T06:43:46.989Z,12.27
2019-03-19T06:46:13.349Z,13.20
2019-03-19T06:48:39.774Z,12.07
2019-03-19T06:51:09.139Z,12.10
2019-03-19T06:53:49.649Z,11.20
2019-03-19T06:56:27.859Z,12.13
2019-03-19T06:58:54.159Z,15.47
2019-03-19T07:01:48.668Z,13.90
2019-03-19T07:04:16.953Z,12.83
2019-03-19T07:06:43.253Z,12.93
2019-03-19T07:09:15.954Z,13.03
2019-03-19T07:11:45.341Z,10.53
2019-03-19T07:14:14.688Z,10.37
2019-03-19T07:16:40.969Z,10.30
2019-03-19T07:19:07.409Z,10.10
2019-03-19T07:21:36.698Z,10.65
2019-03-19T07:24:06.216Z,10.48
2019-03-19T07:26:38.447Z,10.68
2019-03-19T07:29:04.723Z,9.95
2019-03-19T07:31:31.404Z,10.25
2019-03-19T07:33:57.676Z,10.40
2019-03-19T07:36:24.003Z,11.30
2019-03-19T07:38:52.283Z,9.98
2019-03-19T07:41:18.610Z,10.20
2019-03-19T07:43:44.918Z,10.43
2019-03-19T07:46:11.207Z,11.22
2019-03-19T07:48:37.503Z,9.43
2019-03-19T07:51:09.812Z,9.93
2019-03-19T07:53:36.097Z,9.83
2019-03-19T07:56:02.373Z,9.83
2019-03-19T07:58:40.545Z,9.10
2019-03-19T08:00:57.867Z,9.30
2019-03-19T08:03:24.282Z,9.73
2019-03-19T08:05:50.613Z,9.20
2019-03-19T08:08:16.912Z,8.85
2019-03-19T08:10:43.216Z,8.08
2019-03-19T08:13:11.877Z,8.73
2019-03-19T08:15:38.232Z,8.63
2019-03-19T08:18:04.726Z,7.80
2019-03-19T08:20:31.142Z,8.18
2019-03-19T08:22:58.485Z,8.18
2019-03-19T08:25:24.776Z,8.35
2019-03-19T08:27:51.073Z,7.83
2019-03-19T08:30:24.607Z,7.60
2019-03-19T08:32:51.206Z,7.90
2019-03-19T08:35:17.458Z,7.65
2019-03-19T08:37:43.772Z,8.23
2019-03-19T08:40:14.046Z,8.23
2019-03-19T08:42:43.170Z,8.38
2019-03-19T08:45:13.279Z,7.70
2019-03-19T08:47:39.633Z,6.72
2019-03-19T08:50:13.937Z,7.75
2019-03-19T08:52:40.718Z,7.67
2019-03-19T08:55:07.064Z,6.90
2019-03-19T08:57:33.517Z,7.17
2019-03-19T09:00:05.203Z,8.05
2019-03-19T09:02:31.576Z,7.40
2019-03-19T09:05:06.854Z,7.42
2019-03-19T09:07:48.262Z,7.17
2019-03-19T09:12:59.456Z,7.30
2019-03-19T09:15:31.060Z,7.12
2019-03-19T09:17:57.423Z,7.05
2019-03-19T09:20:23.713Z,7.53
2019-03-19T09:22:50.652Z,6.75
2019-03-19T09:25:17.189Z,7.05
2019-03-19T09:27:43.460Z,7.03
2019-03-19T09:30:16.840Z,6.67
2019-03-19T09:32:43.111Z,7.40
2019-03-19T09:35:09.436Z,6.80
2019-03-19T09:37:35.967Z,6.58
2019-03-19T09:40:05.163Z,6.97
2019-03-19T09:42:34.516Z,6.42
2019-03-19T09:45:00.928Z,6.53
2019-03-19T09:47:27.215Z,5.90
2019-03-19T09:49:53.535Z,6.78
2019-03-19T09:52:19.922Z,5.85
2019-03-19T09:54:46.270Z,6.87
2019-03-19T09:57:13.723Z,6.95
2019-03-19T09:59:42.606Z,5.87
2019-03-19T10:02:08.325Z,6.87
2019-03-19T10:04:34.735Z,6.17
2019-03-19T10:07:05.896Z,5.45
2019-03-19T10:09:29.153Z,5.92
2019-03-19T10:11:55.497Z,5.28
2019-03-19T10:14:21.818Z,5.78
2019-03-19T10:16:51.344Z,5.50
2019-03-19T10:19:23.608Z,5.42
2019-03-19T10:21:49.954Z,4.75
2019-03-19T10:24:16.241Z,5.05
2019-03-19T10:26:42.537Z,6.12
2019-03-19T10:29:08.819Z,5.40
2019-03-19T10:31:35.101Z,5.60
2019-03-19T10:34:01.389Z,5.47
2019-03-19T10:36:27.765Z,4.50
2019-03-19T10:38:54.057Z,4.60
2019-03-19T10:41:20.323Z,5.30
2019-03-19T10:43:46.611Z,4.87
2019-03-19T10:46:14.826Z,5.03
2019-03-19T10:48:41.174Z,4.47
2019-03-19T10:51:07.524Z,4.85
2019-03-19T10:53:33.823Z,4.30
2019-03-19T10:56:00.173Z,4.42
2019-03-19T10:58:26.441Z,4.17
2019-03-19T11:00:52.777Z,4.58
2019-03-19T11:03:19.083Z,5.17
2019-03-19T11:05:45.393Z,3.92
2019-03-19T11:08:11.813Z,3.50
2019-03-19T11:10:38.107Z,3.85
2019-03-19T11:13:04.402Z,4.28
2019-03-19T11:15:31.812Z,5.28
2019-03-19T11:17:58.198Z,5.25
2019-03-19T11:20:24.521Z,4.33
2019-03-19T11:22:50.857Z,4.75
2019-03-19T11:25:28.882Z,4.25
2019-03-19T11:27:55.319Z,4.50
2019-03-19T11:30:29.885Z,4.65
2019-03-19T11:32:56.185Z,4.47
2019-03-19T11:35:22.498Z,4.83
2019-03-19T11:37:48.938Z,4.50
2019-03-19T11:40:16.525Z,4.50
2019-03-19T11:42:42.842Z,3.75
2019-03-19T11:45:13.945Z,3.90
2019-03-19T11:47:40.268Z,3.55
2019-03-19T11:50:15.409Z,3.87
2019-03-19T11:52:41.772Z,3.92
2019-03-19T11:55:11.328Z,4.75
2019-03-19T11:57:37.749Z,4.80
2019-03-19T12:00:11.742Z,3.90
2019-03-19T12:02:38.213Z,4.20
2019-03-19T12:05:06.818Z,4.67
2019-03-19T12:07:33.155Z,4.37
2019-03-19T12:09:59.446Z,4.75
2019-03-19T12:12:25.802Z,4.80
2019-03-19T12:14:52.143Z,5.28
2019-03-19T12:17:18.573Z,4.12
2019-03-19T12:19:45.906Z,4.60
2019-03-19T12:22:12.316Z,3.62
2019-03-19T12:24:38.589Z,2.92
2019-03-19T12:27:05.087Z,3.05
2019-03-19T12:29:31.519Z,3.05
2019-03-19T12:31:57.903Z,4.03
2019-03-19T12:34:30.646Z,3.70
2019-03-19T12:36:59.974Z,3.85
2019-03-19T12:39:26.272Z,3.27
2019-03-19T12:41:52.629Z,3.37
2019-03-19T12:44:18.960Z,3.50
2019-03-19T12:46:45.270Z,4.12
2019-03-19T12:49:11.666Z,3.77
2019-03-19T12:51:37.960Z,2.72
2019-03-19T12:54:05.294Z,3.70
2019-03-19T12:56:31.623Z,3.20
2019-03-19T12:58:57.952Z,3.40
2019-03-19T13:01:24.326Z,3.62
2019-03-19T13:03:50.871Z,2.80
2019-03-19T13:06:17.137Z,3.30
2019-03-19T13:08:45.474Z,3.87
2019-03-19T13:11:12.061Z,4.10
2019-03-19T13:13:40.826Z,3.90
2019-03-19T13:16:06.503Z,3.47
2019-03-19T13:18:32.896Z,4.37
2019-03-19T13:20:59.203Z,4.05
2019-03-19T13:23:26.329Z,4.00
2019-03-19T13:25:52.862Z,3.60
2019-03-19T13:28:19.175Z,3.67
2019-03-19T13:30:51.229Z,4.00
2019-03-19T13:33:17.562Z,4.08
2019-03-19T13:35:43.853Z,3.62
2019-03-19T13:38:12.531Z,3.30
2019-03-19T13:40:41.282Z,3.45
2019-03-19T13:43:07.683Z,3.83
2019-03-19T13:45:33.969Z,3.67
2019-03-19T13:48:00.241Z,3.27
2019-03-19T13:50:26.569Z,3.45
2019-03-19T13:52:55.877Z,2.77
2019-03-19T13:55:22.358Z,3.15
2019-03-19T13:57:48.691Z,3.62
2019-03-19T14:03:43.148Z,3.50
2019-03-19T14:06:09.515Z,3.42
2019-03-19T14:08:35.789Z,2.90
2019-03-19T14:11:02.045Z,3.20
2019-03-19T14:13:28.349Z,3.65
2019-03-19T14:15:54.611Z,3.17
2019-03-19T14:18:20.902Z,2.62
2019-03-19T14:20:47.184Z,2.80
2019-03-19T14:23:19.662Z,3.12
2019-03-19T14:25:45.928Z,2.92
2019-03-19T14:28:12.221Z,3.00
2019-03-19T14:30:38.625Z,3.47
2019-03-19T14:33:04.897Z,3.87
2019-03-19T14:35:37.208Z,3.87
2019-03-19T14:37:59.283Z,4.10
2019-03-19T14:40:25.781Z,3.52
2019-03-19T14:43:01.028Z,3.62
2019-03-19T14:45:25.993Z,3.22
2019-03-19T14:47:52.323Z,3.77
2019-03-19T14:50:25.606Z,4.42
2019-03-19T14:52:51.873Z,5.40
2019-03-19T14:55:18.194Z,4.85
2019-03-19T14:57:44.487Z,4.25
2019-03-19T15:00:16.089Z,4.42
2019-03-19T15:02:42.380Z,3.33
2019-03-19T15:05:09.967Z,3.35
2019-03-19T15:07:38.259Z,3.55
2019-03-19T15:10:08.068Z,3.40
2019-03-19T15:12:34.377Z,3.10
2019-03-19T15:15:00.642Z,3.42
2019-03-19T15:17:26.974Z,3.52
2019-03-19T15:19:53.272Z,4.05
2019-03-19T15:22:19.533Z,4.40
2019-03-19T15:24:45.815Z,4.15
2019-03-19T15:27:12.150Z,4.42
2019-03-19T15:29:38.415Z,4.45
2019-03-19T15:32:06.757Z,4.30
2019-03-19T15:34:33.109Z,6.05
2019-03-19T15:37:03.123Z,6.75
2019-03-19T15:39:29.388Z,5.58
2019-03-19T15:41:55.668Z,6.17
2019-03-19T15:44:21.980Z,5.80
2019-03-19T15:46:51.383Z,4.87
2019-03-19T15:49:17.967Z,4.85
2019-03-19T15:51:44.236Z,5.08
2019-03-19T15:54:10.521Z,4.30
2019-03-19T15:56:36.971Z,4.03
2019-03-19T15:59:03.257Z,4.53
2019-03-19T16:01:39.919Z,4.03
2019-03-19T16:03:57.657Z,3.72
2019-03-19T16:06:23.922Z,3.62
2019-03-19T16:08:50.206Z,4.05
2019-03-19T16:11:16.468Z,3.75
2019-03-19T16:13:42.787Z,4.08
2019-03-19T16:16:17.217Z,4.03
2019-03-19T16:18:43.005Z,3.40
2019-03-19T16:21:23.541Z,3.70
2019-03-19T16:23:52.952Z,3.70
2019-03-19T16:26:28.552Z,4.12
2019-03-19T16:28:54.961Z,4.42
2019-03-19T16:32:06.562Z,3.72
2019-03-19T16:34:32.873Z,4.40
2019-03-19T16:37:08.198Z,4.30
2019-03-19T16:39:37.807Z,3.72
2019-03-19T16:42:07.163Z,4.50
2019-03-19T16:44:33.600Z,4.50
2019-03-19T16:47:03.363Z,5.08
2019-03-19T16:49:42.827Z,4.22
2019-03-19T16:52:12.722Z,4.30
2019-03-19T16:54:42.345Z,4.30
2019-03-19T16:57:08.843Z,4.70
2019-03-19T16:59:39.242Z,4.25
2019-03-19T17:02:08.019Z,5.03
2019-03-19T17:04:38.862Z,5.67
2019-03-19T17:07:08.451Z,5.65
2019-03-19T17:10:25.779Z,4.75
2019-03-19T17:12:57.908Z,4.92
2019-03-19T17:15:36.041Z,5.15
2019-03-19T17:18:26.083Z,5.30
2019-03-19T17:20:52.630Z,5.67
2019-03-19T17:23:19.505Z,5.37
2019-03-19T17:25:47.510Z,5.05
2019-03-19T17:28:22.147Z,5.72
2019-03-19T17:31:01.165Z,5.17
2019-03-19T17:33:35.442Z,6.67
2019-03-19T17:36:04.989Z,5.60
2019-03-19T17:38:31.370Z,5.33
2019-03-19T17:40:58.680Z,4.92
2019-03-19T17:43:28.505Z,5.05
2019-03-19T17:45:55.502Z,6.12
2019-03-19T17:48:27.973Z,6.03
2019-03-19T17:50:57.362Z,6.00
2019-03-19T17:53:45.716Z,6.08
2019-03-19T17:56:17.959Z,6.33
2019-03-19T17:58:54.497Z,11.63
2019-03-19T18:01:28.708Z,12.55
2019-03-19T18:03:58.349Z,6.72
2019-03-19T18:06:39.318Z,5.90
2019-03-19T18:09:39.607Z,5.13
2019-03-19T18:12:17.345Z,5.80
2019-03-19T18:14:50.394Z,5.87
2019-03-19T18:17:19.954Z,6.58
2019-03-19T18:19:46.276Z,5.45
2019-03-19T18:22:12.883Z,5.75
2019-03-19T18:25:13.800Z,5.00
2019-03-19T18:27:40.475Z,5.30
2019-03-19T18:30:13.094Z,5.67
2019-03-19T18:32:55.805Z,4.77
2019-03-19T18:35:31.001Z,5.05
2019-03-19T18:38:06.011Z,4.87
2019-03-19T18:40:40.429Z,5.92
2019-03-19T18:43:06.720Z,5.30
2019-03-19T18:45:32.983Z,5.30
2019-03-19T18:48:17.765Z,5.03
2019-03-19T18:50:47.176Z,5.90
2019-03-19T18:53:16.635Z,6.00
2019-03-19T18:55:42.870Z,6.10
2019-03-19T18:58:09.138Z,5.10
2019-03-19T19:00:35.527Z,5.43
2019-03-19T19:03:04.986Z,5.47
2019-03-19T19:05:43.094Z,6.50
2019-03-19T19:08:14.455Z,6.03
2019-03-19T19:10:43.885Z,6.00
2019-03-19T19:13:16.814Z,5.87
2019-03-19T19:15:58.523Z,5.90
2019-03-19T19:18:24.877Z,5.97
2019-03-19T19:20:51.210Z,6.07
2019-03-19T19:23:20.597Z,6.20
2019-03-19T19:25:59.442Z,5.90
2019-03-19T19:28:25.772Z,6.00
2019-03-19T19:30:57.882Z,5.83
2019-03-19T19:33:27.336Z,6.53
2019-03-19T19:35:53.627Z,6.63
2019-03-19T19:38:23.225Z,6.60
2019-03-19T19:40:49.659Z,7.13
2019-03-19T19:43:29.123Z,6.00
2019-03-19T19:46:13.936Z,6.47
2019-03-19T19:48:46.546Z,6.30
2019-03-19T19:51:21.052Z,6.70
2019-03-19T19:53:50.477Z,6.13
2019-03-19T19:56:29.285Z,6.63
2019-03-19T19:58:55.819Z,6.90
2019-03-19T20:01:28.371Z,6.17
2019-03-19T20:04:17.411Z,6.80
2019-03-19T20:06:51.834Z,6.07
2019-03-19T20:09:57.375Z,6.90
2019-03-19T20:12:33.091Z,6.37
2019-03-19T20:15:01.549Z,7.07
2019-03-19T20:17:28.841Z,7.90
2019-03-19T20:19:55.267Z,7.27
2019-03-19T20:22:21.653Z,7.20
2019-03-19T20:24:47.920Z,7.13
2019-03-19T20:27:14.193Z,7.50
2019-03-19T20:29:55.559Z,7.83
2019-03-19T20:32:21.822Z,7.80
2019-03-19T20:34:58.549Z,7.77
2019-03-19T20:37:24.820Z,6.80
2019-03-19T20:39:54.230Z,7.80
2019-03-19T20:42:23.757Z,8.27
2019-03-19T20:44:56.100Z,7.77
2019-03-19T20:47:25.548Z,8.30
2019-03-19T20:49:51.829Z,8.00
2019-03-19T20:52:21.244Z,8.30
2019-03-19T20:54:50.557Z,8.10
2019-03-19T20:57:19.876Z,7.30
2019-03-19T20:59:46.163Z,7.80
2019-03-19T21:02:12.474Z,7.60
2019-03-19T21:04:38.784Z,7.13
2019-03-19T21:07:05.061Z,7.20
2019-03-19T21:09:31.361Z,6.87
2019-03-19T21:11:57.621Z,8.37
2019-03-19T21:14:23.929Z,8.27
2019-03-19T21:16:50.190Z,8.90
2019-03-19T21:19:16.483Z,8.47
2019-03-19T21:21:42.774Z,7.87
2019-03-19T21:24:09.067Z,8.40
2019-03-19T21:26:35.467Z,7.90
2019-03-19T21:29:01.751Z,8.00
2019-03-19T21:31:28.066Z,8.40
2019-03-19T21:33:55.376Z,8.40
2019-03-19T21:36:21.655Z,8.10
2019-03-19T21:38:47.933Z,8.57
2019-03-19T21:41:14.247Z,9.57
2019-03-19T21:43:40.513Z,11.97
2019-03-19T21:46:06.823Z,10.47
2019-03-19T21:48:33.153Z,10.77
2019-03-19T21:50:59.412Z,12.60
2019-03-19T21:53:25.672Z,11.30
2019-03-19T21:55:51.971Z,11.83
2019-03-19T21:58:18.370Z,10.37
2019-03-19T22:00:44.642Z,10.50
2019-03-19T22:03:11.910Z,10.33
2019-03-19T22:05:41.239Z,10.60
2019-03-19T22:08:07.509Z,10.47
2019-03-19T22:10:33.814Z,9.80
2019-03-19T22:13:00.092Z,10.57
2019-03-19T22:15:28.404Z,9.13
2019-03-19T22:17:54.694Z,11.20
2019-03-19T22:20:20.970Z,10.70
2019-03-19T22:22:47.265Z,11.50
2019-03-19T22:25:14.139Z,11.20
2019-03-19T22:27:40.408Z,11.93
2019-03-19T22:30:18.726Z,10.97
2019-03-19T22:32:51.268Z,11.27
2019-03-19T22:35:17.564Z,12.40
2019-03-19T22:37:43.834Z,10.97
2019-03-19T22:40:16.762Z,10.63
2019-03-19T22:42:44.056Z,10.67
2019-03-19T22:45:12.083Z,11.60
2019-03-19T22:47:38.376Z,11.93
2019-03-19T22:50:07.693Z,11.73
2019-03-19T22:52:34.005Z,11.30
2019-03-19T22:55:00.328Z,11.80
2019-03-19T22:57:26.704Z,11.47
2019-03-19T22:59:52.974Z,12.43
2019-03-19T23:02:19.356Z,11.00
2019-03-19T23:04:45.666Z,11.70
2019-03-19T23:07:11.931Z,11.30
2019-03-19T23:09:38.226Z,12.40
2019-03-19T23:12:04.600Z,12.37
2019-03-19T23:14:30.896Z,11.60
2019-03-19T23:17:04.176Z,12.07
2019-03-19T23:19:30.442Z,12.83
2019-03-19T23:21:56.714Z,12.17
2019-03-19T23:24:23.051Z,11.70
2019-03-19T23:26:49.358Z,13.03
2019-03-19T23:29:15.639Z,12.57
2019-03-19T23:31:42.370Z,14.33
2019-03-19T23:34:08.690Z,14.37
2019-03-19T23:36:34.967Z,13.20
2019-03-19T23:39:04.758Z,13.47
2019-03-19T23:41:31.058Z,13.93
2019-03-19T23:43:57.338Z,13.47
2019-03-19T23:46:26.658Z,13.87
2019-03-19T23:48:52.936Z,13.10
2019-03-19T23:51:19.217Z,13.67
2019-03-19T23:53:45.532Z,13.23
2019-03-19T23:56:11.821Z,14.83
2019-03-19T23:58:38.074Z,14.00
